Terminal Aerodrome Forecast
Issued by NWS Melbourne, FL

Home | Current Version | Previous Version | Text Only | Print | Product List | Glossary On
Versions: 1 2 3 4 5 6 7 8 9 10 11 12 13 14 15 16 17 18 19 20 21 22 23 24
323
FTUS42 KMLB 220309 AAA
TAFMCO
TAF AMD
KMCO 220309Z 2203/2224 05007KT P6SM FEW030 BKN250
     FM221400 10008KT P6SM SCT030 BKN250
     FM221600 11010KT P6SM VCSH SCT040 BKN100 BKN250=

USA.gov is the U.S. government's official web portal to all federal, state and local government web resources and services.